Date,TemperatureHighF,TemperatureAvgF,TemperatureLowF,DewpointHighF,DewpointAvgF,DewpointLowF,HumidityHigh,HumidityAvg,HumidityLow,PressureMaxIn,PressureMinIn,WindSpeedMaxMPH,WindSpeedAvgMPH,GustSpeedMaxMPH,PrecipitationSumIn
2013-1-1,44.0,37.3,34.0,34.0,29.8,19.0,98,77,36,0.00,40.00,18,7,37,0.26
2013-1-2,34.0,30.9,31.0,34.0,25.8,-99.9,100,94,98,0.00,40.00,8,2,17,0.39
2013-1-3,35.0,32.1,30.0,35.0,32.1,30.0,100,100,100,0.00,40.00,8,3,20,0.41
2013-1-4,39.0,35.3,33.0,36.0,34.3,32.0,100,96,88,0.00,40.00,8,4,20,0.98
2013-1-5,38.0,36.2,32.0,37.0,34.7,32.0,100,94,87,0.00,40.00,6,3,11,0.19
2013-1-6,36.0,34.3,32.0,35.0,33.3,32.0,100,96,87,0.00,40.00,7,3,15,0.07
2013-1-7,36.0,34.1,30.0,36.0,34.0,30.0,100,99,96,0.00,40.00,6,3,12,0.12
2013-1-8,33.0,31.8,30.0,33.0,31.8,30.0,100,100,100,0.00,40.00,6,3,12,0.01
2013-1-9,35.0,28.7,20.0,32.0,25.9,18.0,100,90,75,0.00,40.00,10,4,18,0.03
2013-1-10,30.0,27.4,23.0,28.0,25.8,22.0,97,94,86,0.00,40.00,4,2,7,0.01
2013-1-11,33.0,30.9,29.0,32.0,30.2,28.0,99,97,94,0.00,40.00,5,2,9,0.00
2013-1-12,37.0,31.6,30.0,34.0,30.4,29.0,98,95,76,0.00,40.00,3,1,7,0.05
2013-1-13,36.0,34.2,32.0,36.0,34.2,32.0,100,100,98,0.00,40.00,5,4,10,0.35
2013-1-14,41.0,38.6,36.0,41.0,38.6,36.0,100,100,100,0.00,40.00,8,5,16,0.12
2013-1-15,39.0,37.4,36.0,39.0,37.4,36.0,100,100,99,0.00,40.00,10,7,21,0.77
2013-1-16,41.0,36.9,35.0,39.0,36.9,35.0,100,100,100,0.00,40.00,11,5,19,1.09
2013-1-17,41.0,39.0,32.0,41.0,38.7,31.0,100,99,98,0.00,40.00,14,8,30,1.74
2013-1-18,36.0,32.5,29.0,34.0,31.8,29.0,100,97,91,0.00,40.00,4,2,8,0.01
2013-1-19,35.0,32.8,31.0,33.0,30.5,28.0,99,91,82,0.00,40.00,9,5,16,0.01
2013-1-20,39.0,36.1,33.0,37.0,31.9,28.0,96,85,80,0.00,40.00,8,4,14,0.00
2013-1-21,42.0,38.0,34.0,39.0,36.8,34.0,100,96,89,0.00,40.00,7,4,16,0.00
2013-1-22,40.0,36.5,32.0,40.0,36.1,32.0,100,98,85,0.00,40.00,6,3,11,0.34
2013-1-23,38.0,36.5,35.0,38.0,36.0,35.0,100,98,95,0.00,40.00,8,5,16,0.30
2013-1-24,41.0,37.7,36.0,37.0,34.9,31.0,100,90,66,0.00,40.00,8,4,26,0.04
2013-1-25,40.0,38.5,37.0,39.0,36.5,31.0,99,93,70,0.00,40.00,12,7,26,0.13
2013-1-26,37.0,35.3,31.0,37.0,34.5,29.0,100,97,93,0.00,40.00,7,5,16,0.04
2013-1-27,35.0,30.3,27.0,32.0,28.6,25.0,99,93,72,0.00,40.00,6,3,12,0.02
2013-1-28,29.0,17.4,12.0,27.0,12.5,5.0,94,81,69,0.00,40.00,16,11,31,0.01
2013-1-29,32.0,23.9,14.0,31.0,22.6,11.0,100,94,86,0.00,40.00,8,4,16,0.00
2013-1-30,37.0,34.2,32.0,37.0,34.2,32.0,100,100,99,0.00,40.00,6,2,11,0.50
2013-1-31,40.0,37.4,34.0,40.0,37.4,34.0,100,100,100,0.00,40.00,5,3,9,0.70